Platitera Thassou — SY5479 — position and weather

sailwx.info

Track history (hours):
 
Tides and Currents Weather Stations Pressure Air Temp Water Temp Dewpoint Dewpoint Depression Visibility Wind Speed Wind Dir Waves Ship Positions

Platitera Thassou

Last reported at 2018-Jan-19 13:11 UTC. Time now 2018-Jan-20 01:39 UTC.
Position N 40°47' E 024°42'.

Length 84 m; draft 2.4 m.

Type: Passenger vessel. MMSI: 237871300.

Date/timePositionNaut miles runAvg speedWind from/ knotsBaromVisibWave heightAir tempDewpointWater temp
2018-Jan-19 13:11N 40°47' E 024°42'0 0.0
2018-Jan-19 13:00N 40°47' E 024°42'4 7.6
2018-Jan-19 12:30N 40°51' E 024°41'1 2.8
2018-Jan-19 12:00N 40°51' E 024°42'1 2.6
2018-Jan-19 11:30N 40°51' E 024°41'4 7.8
2018-Jan-19 11:00N 40°47' E 024°42'0 0.0
2018-Jan-19 10:30N 40°47' E 024°42'2 3.6
2018-Jan-19 10:00N 40°49' E 024°42'3 5.8
2018-Jan-19 09:30N 40°51' E 024°42'0 0.0
2018-Jan-19 09:00N 40°51' E 024°42'3 5.8
2018-Jan-19 08:30N 40°49' E 024°42'2 3.6
2018-Jan-19 08:00N 40°47' E 024°42'2 3.7
2018-Jan-19 07:30N 40°49' E 024°41'3 5.8
2018-Jan-19 07:00N 40°51' E 024°42'0 0.1
2018-Jan-19 06:30N 40°51' E 024°42'3 5.9
2018-Jan-19 06:00N 40°49' E 024°42'2 0.2
2018-Jan-18 18:30N 40°47' E 024°42'2 4.5
2018-Jan-18 18:00N 40°49' E 024°41'3 5.3
2018-Jan-18 17:31N 40°51' E 024°42'1 2.2
2018-Jan-18 17:00N 40°51' E 024°41'3 6.0
2018-Jan-18 16:31N 40°48' E 024°42'1 2.8
2018-Jan-18 16:01N 40°47' E 024°42'0 0.0
2018-Jan-18 15:31N 40°47' E 024°42'0 0.0
2018-Jan-18 15:00N 40°47' E 024°42'0 0.0
2018-Jan-18 14:30N 40°47' E 024°42'0 0.0
2018-Jan-18 14:01N 40°47' E 024°42'0 0.0
2018-Jan-18 13:30N 40°47' E 024°42'4 7.7
2018-Jan-18 13:00N 40°51' E 024°41'1 2.3
2018-Jan-18 12:31N 40°52' E 024°42'3 5.1
2018-Jan-18 12:00N 40°49' E 024°42'2 4.5
2018-Jan-18 11:30N 40°47' E 024°43'  
2018-Jan-12 12:41N 40°47' E 024°43'0 1.4
2018-Jan-12 12:30N 40°47' E 024°42'4 7.3
2018-Jan-12 12:00N 40°50' E 024°41'1 2.6
2018-Jan-12 11:31N 40°51' E 024°42'1 2.0
2018-Jan-12 11:00N 40°51' E 024°41'4 8.7
2018-Jan-12 10:30N 40°47' E 024°42'0 0.0
2018-Jan-12 10:00N 40°47' E 024°42'0 0.0
2018-Jan-12 09:30N 40°47' E 024°42'0 0.0
2018-Jan-12 09:00N 40°47' E 024°42'0 0.0
2018-Jan-12 08:30N 40°47' E 024°42'4 7.6
2018-Jan-12 08:00N 40°51' E 024°41'1 2.4
2018-Jan-12 07:30N 40°51' E 024°42'1 2.1
2018-Jan-12 07:00N 40°51' E 024°41'4 8.3
2018-Jan-12 06:30N 40°47' E 024°42'0 0.0
2018-Jan-11 09:13N 40°47' E 024°42'0 0.0
2018-Jan-11 09:00N 40°47' E 024°42'4 7.5
2018-Jan-11 08:30N 40°51' E 024°41'1 2.6
2018-Jan-11 08:00N 40°51' E 024°42'1 2.4
2018-Jan-11 07:30N 40°51' E 024°41'4 7.6
2018-Jan-11 07:00N 40°47' E 024°42'0 0.0
2018-Jan-11 06:30N 40°47' E 024°42'0 0.0
2018-Jan-11 06:00N 40°47' E 024°42'0 0.1
2018-Jan-11 05:30N 40°47' E 024°42'4 7.9
2018-Jan-11 05:00N 40°51' E 024°41'1 2.3
2018-Jan-11 04:30N 40°51' E 024°42'1 2.6
2018-Jan-11 04:00N 40°51' E 024°41'4 8.2
2018-Jan-11 03:30N 40°47' E 024°42'0 0.0
2018-Jan-10 14:04N 40°47' E 024°42'0 0.7
2018-Jan-10 14:00N 40°47' E 024°42'4 7.3
2018-Jan-10 13:30N 40°50' E 024°41'1 2.7
2018-Jan-10 13:00N 40°51' E 024°42'3 5.7
2018-Jan-10 12:29N 40°49' E 024°42'2 3.6
2018-Jan-10 12:00N 40°47' E 024°42'0 0.0
2018-Jan-10 11:30N 40°47' E 024°42'0 0.0
2018-Jan-10 11:00N 40°47' E 024°42'0 0.0
2018-Jan-10 10:30N 40°47' E 024°42'0 0.0
2018-Jan-10 10:00N 40°47' E 024°42'0 0.0
2018-Jan-10 09:30N 40°47' E 024°42'0 0.0
2018-Jan-10 09:00N 40°47' E 024°42'0 0.1
2018-Jan-10 08:30N 40°47' E 024°42'4 7.4
2018-Jan-10 08:00N 40°50' E 024°41'1 2.5
2018-Jan-10 07:30N 40°51' E 024°42'1 2.0
2018-Jan-10 07:00N 40°51' E 024°41'4 8.4
2018-Jan-10 06:30N 40°47' E 024°42'0 0.0
2018-Jan-10 06:00N 40°47' E 024°42'0 0.0
2018-Jan-10 05:30N 40°47' E 024°42'0 0.0
2018-Jan-10 05:00N 40°47' E 024°42'2 4.1
2018-Jan-10 04:30N 40°49' E 024°41'3 5.7
2018-Jan-10 04:00N 40°51' E 024°42'0 0.0
2018-Jan-09 15:43N 40°51' E 024°42'1 4.8
2018-Jan-09 15:30N 40°51' E 024°41'4 8.7
2018-Jan-09 15:00N 40°47' E 024°42'2 3.9
2018-Jan-09 14:30N 40°49' E 024°41'3 5.6
2018-Jan-09 14:00N 40°51' E 024°42'1 2.1
2018-Jan-09 13:30N 40°51' E 024°41'  
Track history (hours):
 
Tides and Currents Weather Stations Pressure Air Temp Water Temp Dewpoint Dewpoint Depression Visibility Wind Speed Wind Dir Waves Ship Positions

Platitera Thassou

Last reported at 2018-Jan-19 13:11 UTC. Time now 2018-Jan-20 01:39 UTC.
Position N 40°47' E 024°42'.

Length 84 m; draft 2.4 m.

Type: Passenger vessel. MMSI: 237871300.

Date/timePositionNaut miles runAvg speedWind from/ knotsBaromVisibWave heightAir tempDewpointWater temp
2018-Jan-19 13:11N 40°47' E 024°42'0 0.0
2018-Jan-19 13:00N 40°47' E 024°42'4 7.6
2018-Jan-19 12:30N 40°51' E 024°41'1 2.8
2018-Jan-19 12:00N 40°51' E 024°42'1 2.6
2018-Jan-19 11:30N 40°51' E 024°41'4 7.8
2018-Jan-19 11:00N 40°47' E 024°42'0 0.0
2018-Jan-19 10:30N 40°47' E 024°42'2 3.6
2018-Jan-19 10:00N 40°49' E 024°42'3 5.8
2018-Jan-19 09:30N 40°51' E 024°42'0 0.0
2018-Jan-19 09:00N 40°51' E 024°42'3 5.8
2018-Jan-19 08:30N 40°49' E 024°42'2 3.6
2018-Jan-19 08:00N 40°47' E 024°42'2 3.7
2018-Jan-19 07:30N 40°49' E 024°41'3 5.8
2018-Jan-19 07:00N 40°51' E 024°42'0 0.1
2018-Jan-19 06:30N 40°51' E 024°42'3 5.9
2018-Jan-19 06:00N 40°49' E 024°42'2 0.2
2018-Jan-18 18:30N 40°47' E 024°42'2 4.5
2018-Jan-18 18:00N 40°49' E 024°41'3 5.3
2018-Jan-18 17:31N 40°51' E 024°42'1 2.2
2018-Jan-18 17:00N 40°51' E 024°41'3 6.0
2018-Jan-18 16:31N 40°48' E 024°42'1 2.8
2018-Jan-18 16:01N 40°47' E 024°42'0 0.0
2018-Jan-18 15:31N 40°47' E 024°42'0 0.0
2018-Jan-18 15:00N 40°47' E 024°42'0 0.0
2018-Jan-18 14:30N 40°47' E 024°42'0 0.0
2018-Jan-18 14:01N 40°47' E 024°42'0 0.0
2018-Jan-18 13:30N 40°47' E 024°42'4 7.7
2018-Jan-18 13:00N 40°51' E 024°41'1 2.3
2018-Jan-18 12:31N 40°52' E 024°42'3 5.1
2018-Jan-18 12:00N 40°49' E 024°42'2 4.5
2018-Jan-18 11:30N 40°47' E 024°43'  
2018-Jan-12 12:41N 40°47' E 024°43'0 1.4
2018-Jan-12 12:30N 40°47' E 024°42'4 7.3
2018-Jan-12 12:00N 40°50' E 024°41'1 2.6
2018-Jan-12 11:31N 40°51' E 024°42'1 2.0
2018-Jan-12 11:00N 40°51' E 024°41'4 8.7
2018-Jan-12 10:30N 40°47' E 024°42'0 0.0
2018-Jan-12 10:00N 40°47' E 024°42'0 0.0
2018-Jan-12 09:30N 40°47' E 024°42'0 0.0
2018-Jan-12 09:00N 40°47' E 024°42'0 0.0
2018-Jan-12 08:30N 40°47' E 024°42'4 7.6
2018-Jan-12 08:00N 40°51' E 024°41'1 2.4
2018-Jan-12 07:30N 40°51' E 024°42'1 2.1
2018-Jan-12 07:00N 40°51' E 024°41'4 8.3
2018-Jan-12 06:30N 40°47' E 024°42'0 0.0
2018-Jan-11 09:13N 40°47' E 024°42'0 0.0
2018-Jan-11 09:00N 40°47' E 024°42'4 7.5
2018-Jan-11 08:30N 40°51' E 024°41'1 2.6
2018-Jan-11 08:00N 40°51' E 024°42'1 2.4
2018-Jan-11 07:30N 40°51' E 024°41'4 7.6
2018-Jan-11 07:00N 40°47' E 024°42'0 0.0
2018-Jan-11 06:30N 40°47' E 024°42'0 0.0
2018-Jan-11 06:00N 40°47' E 024°42'0 0.1
2018-Jan-11 05:30N 40°47' E 024°42'4 7.9
2018-Jan-11 05:00N 40°51' E 024°41'1 2.3
2018-Jan-11 04:30N 40°51' E 024°42'1 2.6
2018-Jan-11 04:00N 40°51' E 024°41'4 8.2
2018-Jan-11 03:30N 40°47' E 024°42'0 0.0
2018-Jan-10 14:04N 40°47' E 024°42'0 0.7
2018-Jan-10 14:00N 40°47' E 024°42'4 7.3
2018-Jan-10 13:30N 40°50' E 024°41'1 2.7
2018-Jan-10 13:00N 40°51' E 024°42'3 5.7
2018-Jan-10 12:29N 40°49' E 024°42'2 3.6
2018-Jan-10 12:00N 40°47' E 024°42'0 0.0
2018-Jan-10 11:30N 40°47' E 024°42'0 0.0
2018-Jan-10 11:00N 40°47' E 024°42'0 0.0
2018-Jan-10 10:30N 40°47' E 024°42'0 0.0
2018-Jan-10 10:00N 40°47' E 024°42'0 0.0
2018-Jan-10 09:30N 40°47' E 024°42'0 0.0
2018-Jan-10 09:00N 40°47' E 024°42'0 0.1
2018-Jan-10 08:30N 40°47' E 024°42'4 7.4
2018-Jan-10 08:00N 40°50' E 024°41'1 2.5
2018-Jan-10 07:30N 40°51' E 024°42'1 2.0
2018-Jan-10 07:00N 40°51' E 024°41'4 8.4
2018-Jan-10 06:30N 40°47' E 024°42'0 0.0
2018-Jan-10 06:00N 40°47' E 024°42'0 0.0
2018-Jan-10 05:30N 40°47' E 024°42'0 0.0
2018-Jan-10 05:00N 40°47' E 024°42'2 4.1
2018-Jan-10 04:30N 40°49' E 024°41'3 5.7
2018-Jan-10 04:00N 40°51' E 024°42'0 0.0
2018-Jan-09 15:43N 40°51' E 024°42'1 4.8
2018-Jan-09 15:30N 40°51' E 024°41'4 8.7
2018-Jan-09 15:00N 40°47' E 024°42'2 3.9
2018-Jan-09 14:30N 40°49' E 024°41'3 5.6
2018-Jan-09 14:00N 40°51' E 024°42'1 2.1
2018-Jan-09 13:30N 40°51' E 024°41'  

Dump ship's entire track history